FranceFixed distance
Festival des Templiers - Endurance Trail
17–18 Oct2025
Distance
100km
Finishers
1,2821,128 men154 women
Winning time
9:37:30h
Median pace
5.73km/h
Pace distribution
1,282 finishers · 4.09–10.39 km/h · mean 5.93
Every finisher ran the same 100 km course, so these paces are directly comparable.
Histogram of finisher pace. 1,282 finishers ranged from 4.09 to 10.39 kilometres per hour, with a mean of 5.93 and a median of 5.73. The busiest band is 5.5 to 6.0 kilometres per hour, with 263 finishers.
Results
Ranks 151–200 of 1,282
| Rank | Runner | Time | Pace | Cat. | Placing |
|---|---|---|---|---|---|
| 151 | Dussably, AntoineFranceMan | 13:46:43h | 7.26 | M35 | 137th M · 40th M35 |
| 152 | Roudil, ThibaultFranceMan | 13:47:48h | 7.25 | M23 | 138th M · 74th M23 |
| 153 | Baena Salvado, JavierSpainMan | 13:49:17h | 7.24 | M45 | 139th M · 10th M45 |
| 154 | Barriere, TheoFranceMan | 13:49:43h | 7.23 | M23 | 140th M · 75th M23 |
| 155 | Houet, RomainFranceMan | 13:49:49h | 7.23 | M35 | 141st M · 41st M35 |
| 156 | Raguenes, AntonyFranceMan | 13:50:45h | 7.22 | M40 | 142nd M · 12th M40 |
| 157 | Chaliez, BenoitFranceMan | 13:51:24h | 7.22 | M23 | 143rd M · 76th M23 |
| 158 | Loustau, SarahFranceWoman | 13:51:32h | 7.22 | W23 | 15th F · 9th W23 |
| 159 | Chotard, BenoitFranceMan | 13:52:33h | 7.21 | M23 | 144th M · 77th M23 |
| 160 | Pethieu, RomainFranceMan USM Malakoff | 13:53:45h | 7.20 | M45 | 145th M · 11th M45 |
| 161 | Daoulas, GuillaumeFranceMan | 13:56:58h | 7.17 | M40 | 146th M · 13th M40 |
| 162 | Pascau, RomanFranceMan | 13:57:20h | 7.17 | M35 | 147th M · 42nd M35 |
| 163 | Mathamel, AlessioItalyMan | 13:58:33h | 7.16 | M35 | 148th M · 43rd M35 |
| 164 | Roux, FredericFranceMan | 13:58:35h | 7.16 | M45 | 149th M · 12th M45 |
| 165 | Hegron, FabienFranceMan AL Voiron | 13:58:47h | 7.15 | M45 | 150th M · 13th M45 |
| 166 | Casari, ChiaraItalyWoman | 13:58:50h | 7.15 | W35 | 16th F · 4th W35 |
| 167 | Renaud, TheoFranceMan | 13:59:27h | 7.15 | M23 | 151st M · 78th M23 |
| 168 | Guiheneuf, NicolasFranceMan Expert Sport Coaching | 14:00:25h | 7.14 | M40 | 152nd M · 14th M40 |
| 169 | Meunier, ArthurFranceMan | 14:00:44h | 7.14 | M23 | 153rd M · 79th M23 |
| 169 | Poser, ArnaudFranceMan | 14:00:44h | 7.14 | M23 | 153rd M · 79th M23 |
| 171 | Musiaux, ChristopheBelgiumMan | 14:00:58h | 7.13 | M40 | 155th M · 15th M40 |
| 172 | Kaufmann, BenjaminFranceMan Athle Vaison Ventoux | 14:01:22h | 7.13 | M23 | 156th M · 81st M23 |
| 173 | Porte, ClementFranceMan Team Trail Paris | 14:01:30h | 7.13 | M23 | 157th M · 82nd M23 |
| 174 | Salin, BenoitFranceMan | 14:01:47h | 7.13 | M40 | 158th M · 16th M40 |
| 175 | Brethome, BenjaminFranceMan | 14:03:30h | 7.11 | M23 | 159th M · 83rd M23 |
| 176 | Lande, YohanFranceMan | 14:03:32h | 7.11 | M23 | 160th M · 84th M23 |
| 177 | Beuzelin, GuillaumeFranceMan | 14:04:51h | 7.10 | M35 | 161st M · 44th M35 |
| 178 | Boniteau, EliotFranceMan | 14:06:52h | 7.08 | M23 | 162nd M · 85th M23 |
| 179 | Istasses, ErwanFranceMan | 14:07:26h | 7.08 | M35 | 163rd M · 45th M35 |
| 180 | Robert, MalvinFranceMan | 14:07:40h | 7.08 | M23 | 164th M · 86th M23 |
| 181 | Arnal, LucieFranceWoman Tri Run Frontignan | 14:07:59h | 7.08 | W40 | 17th F · 2nd W40 |
| 182 | Mare, UgoFranceMan | 14:09:35h | 7.06 | M23 | 165th M · 87th M23 |
| 183 | Ratz, LisaAustriaWoman | 14:09:45h | 7.06 | W23 | 18th F · 10th W23 |
| 184 | Kojala, DonatasLithuaniaMan | 14:10:18h | 7.06 | M40 | 166th M · 17th M40 |
| 185 | Cooke, FabienFranceMan | 14:12:06h | 7.04 | M40 | 167th M · 18th M40 |
| 186 | Fam-Menth, BrunoFranceMan | 14:13:22h | 7.03 | M23 | 168th M · 88th M23 |
| 187 | Odent, Andre-JacquesFranceMan | 14:14:12h | 7.02 | M23 | 169th M · 89th M23 |
| 188 | David, EmilienFranceMan | 14:14:17h | 7.02 | M23 | 170th M · 90th M23 |
| 189 | Chevalier, EricFranceMan | 14:14:23h | 7.02 | M55 | 171st M · 2nd M55 |
| 190 | Chamaillard, MathildeFranceWoman | 14:14:38h | 7.02 | W23 | 19th F · 11th W23 |
| 191 | Del Franco, YoannFranceMan les Foulees de Saint-G... | 14:14:48h | 7.02 | M35 | 172nd M · 46th M35 |
| 192 | Niravong, JeremieFranceMan | 14:15:28h | 7.01 | M45 | 173rd M · 14th M45 |
| 193 | Maitralain, FlorentFranceMan | 14:15:29h | 7.01 | M35 | 174th M · 47th M35 |
| 194 | Durand, FredericFranceMan | 14:15:31h | 7.01 | M50 | 175th M · 2nd M50 |
| 195 | Porte, RomainFranceMan | 14:15:38h | 7.01 | M23 | 176th M · 91st M23 |
| 196 | Roux, JustineFranceWoman | 14:16:21h | 7.01 | W23 | 20th F · 12th W23 |
| 197 | Duc, ChristopheFranceMan | 14:16:23h | 7.01 | M45 | 177th M · 15th M45 |
| 198 | Bleicher, SamyFranceMan | 14:17:54h | 6.99 | M23 | 178th M · 92nd M23 |
| 199 | Ladagnous, CarolineFranceWoman les Givres de la Plain... | 14:18:22h | 6.99 | W35 | 21st F · 5th W35 |
| 200 | Sabathier, GuilhemFranceMan | 14:18:47h | 6.99 | M23 | 179th M · 93rd M23 |
- 151Dussably, AntoineFranceMan137th M · 40th M35Time13:46:43hPace7.26Cat.M35
- 152Roudil, ThibaultFranceMan138th M · 74th M23Time13:47:48hPace7.25Cat.M23
- 153Baena Salvado, JavierSpainMan139th M · 10th M45Time13:49:17hPace7.24Cat.M45
- 154Barriere, TheoFranceMan140th M · 75th M23Time13:49:43hPace7.23Cat.M23
- 155Houet, RomainFranceMan141st M · 41st M35Time13:49:49hPace7.23Cat.M35
- 156Raguenes, AntonyFranceMan142nd M · 12th M40Time13:50:45hPace7.22Cat.M40
- 157Chaliez, BenoitFranceMan143rd M · 76th M23Time13:51:24hPace7.22Cat.M23
- 158Loustau, SarahFranceWoman15th F · 9th W23Time13:51:32hPace7.22Cat.W23
- 159Chotard, BenoitFranceMan144th M · 77th M23Time13:52:33hPace7.21Cat.M23
- 160Pethieu, RomainFranceManUSM Malakoff145th M · 11th M45Time13:53:45hPace7.20Cat.M45
- 161Daoulas, GuillaumeFranceMan146th M · 13th M40Time13:56:58hPace7.17Cat.M40
- 162Pascau, RomanFranceMan147th M · 42nd M35Time13:57:20hPace7.17Cat.M35
- 163Mathamel, AlessioItalyMan148th M · 43rd M35Time13:58:33hPace7.16Cat.M35
- 164Roux, FredericFranceMan149th M · 12th M45Time13:58:35hPace7.16Cat.M45
- 165Hegron, FabienFranceManAL Voiron150th M · 13th M45Time13:58:47hPace7.15Cat.M45
- 166Casari, ChiaraItalyWoman16th F · 4th W35Time13:58:50hPace7.15Cat.W35
- 167Renaud, TheoFranceMan151st M · 78th M23Time13:59:27hPace7.15Cat.M23
- 168Guiheneuf, NicolasFranceManExpert Sport Coaching152nd M · 14th M40Time14:00:25hPace7.14Cat.M40
- 169Meunier, ArthurFranceMan153rd M · 79th M23Time14:00:44hPace7.14Cat.M23
- 169Poser, ArnaudFranceMan153rd M · 79th M23Time14:00:44hPace7.14Cat.M23
- 171Musiaux, ChristopheBelgiumMan155th M · 15th M40Time14:00:58hPace7.13Cat.M40
- 172Kaufmann, BenjaminFranceManAthle Vaison Ventoux156th M · 81st M23Time14:01:22hPace7.13Cat.M23
- 173Porte, ClementFranceManTeam Trail Paris157th M · 82nd M23Time14:01:30hPace7.13Cat.M23
- 174Salin, BenoitFranceMan158th M · 16th M40Time14:01:47hPace7.13Cat.M40
- 175Brethome, BenjaminFranceMan159th M · 83rd M23Time14:03:30hPace7.11Cat.M23
- 176Lande, YohanFranceMan160th M · 84th M23Time14:03:32hPace7.11Cat.M23
- 177Beuzelin, GuillaumeFranceMan161st M · 44th M35Time14:04:51hPace7.10Cat.M35
- 178Boniteau, EliotFranceMan162nd M · 85th M23Time14:06:52hPace7.08Cat.M23
- 179Istasses, ErwanFranceMan163rd M · 45th M35Time14:07:26hPace7.08Cat.M35
- 180Robert, MalvinFranceMan164th M · 86th M23Time14:07:40hPace7.08Cat.M23
- 181Arnal, LucieFranceWomanTri Run Frontignan17th F · 2nd W40Time14:07:59hPace7.08Cat.W40
- 182Mare, UgoFranceMan165th M · 87th M23Time14:09:35hPace7.06Cat.M23
- 183Ratz, LisaAustriaWoman18th F · 10th W23Time14:09:45hPace7.06Cat.W23
- 184Kojala, DonatasLithuaniaMan166th M · 17th M40Time14:10:18hPace7.06Cat.M40
- 185Cooke, FabienFranceMan167th M · 18th M40Time14:12:06hPace7.04Cat.M40
- 186Fam-Menth, BrunoFranceMan168th M · 88th M23Time14:13:22hPace7.03Cat.M23
- 187Odent, Andre-JacquesFranceMan169th M · 89th M23Time14:14:12hPace7.02Cat.M23
- 188David, EmilienFranceMan170th M · 90th M23Time14:14:17hPace7.02Cat.M23
- 189Chevalier, EricFranceMan171st M · 2nd M55Time14:14:23hPace7.02Cat.M55
- 190Chamaillard, MathildeFranceWoman19th F · 11th W23Time14:14:38hPace7.02Cat.W23
- 191Del Franco, YoannFranceManles Foulees de Saint-G...172nd M · 46th M35Time14:14:48hPace7.02Cat.M35
- 192Niravong, JeremieFranceMan173rd M · 14th M45Time14:15:28hPace7.01Cat.M45
- 193Maitralain, FlorentFranceMan174th M · 47th M35Time14:15:29hPace7.01Cat.M35
- 194Durand, FredericFranceMan175th M · 2nd M50Time14:15:31hPace7.01Cat.M50
- 195Porte, RomainFranceMan176th M · 91st M23Time14:15:38hPace7.01Cat.M23
- 196Roux, JustineFranceWoman20th F · 12th W23Time14:16:21hPace7.01Cat.W23
- 197Duc, ChristopheFranceMan177th M · 15th M45Time14:16:23hPace7.01Cat.M45
- 198Bleicher, SamyFranceMan178th M · 92nd M23Time14:17:54hPace6.99Cat.M23
- 199Ladagnous, CarolineFranceWomanles Givres de la Plain...21st F · 5th W35Time14:18:22hPace6.99Cat.W35
- 200Sabathier, GuilhemFranceMan179th M · 93rd M23Time14:18:47hPace6.99Cat.M23
Showing ranks 151–200 of 1,282